createdAt,value
2023-04-14T00:02:12.406Z,54.40
2023-04-14T00:04:39.053Z,54.16
2023-04-14T00:07:05.747Z,54.38
2023-04-14T00:09:32.524Z,54.07
2023-04-14T00:11:59.077Z,53.81
2023-04-14T00:14:25.676Z,54.65
2023-04-14T00:16:52.329Z,53.92
2023-04-14T00:19:18.952Z,54.27
2023-04-14T00:21:45.526Z,54.28
2023-04-14T00:24:12.059Z,54.76
2023-04-14T00:26:38.714Z,55.05
2023-04-14T00:29:05.286Z,54.68
2023-04-14T00:31:31.980Z,54.91
2023-04-14T00:34:00.305Z,55.38
2023-04-14T00:36:26.975Z,56.17
2023-04-14T00:38:53.584Z,55.20
2023-04-14T00:41:20.113Z,55.74
2023-04-14T00:43:46.696Z,55.73
2023-04-14T00:46:17.183Z,56.12
2023-04-14T00:48:44.347Z,55.97
2023-04-14T00:51:11.716Z,55.31
2023-04-14T00:53:40.152Z,55.05
2023-04-14T00:56:08.084Z,55.05
2023-04-14T00:58:35.375Z,54.59
2023-04-14T01:01:02.150Z,55.24
2023-04-14T01:03:29.052Z,54.90
2023-04-14T01:05:57.610Z,55.39
2023-04-14T01:08:24.939Z,54.96
2023-04-14T01:11:17.119Z,55.08
2023-04-14T01:14:11.774Z,55.53
2023-04-14T01:16:45.292Z,55.14
2023-04-14T01:19:24.167Z,55.09
2023-04-14T01:21:56.661Z,54.78
2023-04-14T01:24:37.720Z,55.33
2023-04-14T01:27:31.764Z,55.23
2023-04-14T01:30:35.393Z,55.00
2023-04-14T01:33:06.958Z,54.60
2023-04-14T01:35:49.522Z,54.59
2023-04-14T01:38:23.722Z,54.60
2023-04-14T01:40:57.309Z,54.52
2023-04-14T01:43:30.625Z,54.45
2023-04-14T01:46:00.957Z,54.67
2023-04-14T01:48:29.068Z,54.56
2023-04-14T01:50:56.534Z,54.31
2023-04-14T01:53:25.796Z,53.70
2023-04-14T01:55:55.607Z,53.84
2023-04-14T01:58:23.652Z,53.45
2023-04-14T02:00:52.137Z,53.69
2023-04-14T02:03:21.454Z,53.78
2023-04-14T02:05:51.250Z,53.80
2023-04-14T02:08:21.169Z,53.51
2023-04-14T02:10:50.256Z,53.52
2023-04-14T02:13:19.655Z,53.79
2023-04-14T02:15:48.685Z,53.85
2023-04-14T02:18:16.390Z,53.64
2023-04-14T02:20:46.866Z,53.79
2023-04-14T02:23:14.091Z,53.64
2023-04-14T02:26:18.557Z,53.74
2023-04-14T02:29:02.794Z,53.56
2023-04-14T02:31:33.598Z,53.54
2023-04-14T02:34:03.678Z,53.40
2023-04-14T02:36:53.465Z,53.72
2023-04-14T02:39:26.024Z,53.57
2023-04-14T02:41:58.657Z,53.69
2023-04-14T02:44:29.040Z,53.84
2023-04-14T02:47:09.474Z,53.55
2023-04-14T02:49:43.789Z,54.24
2023-04-14T02:52:12.566Z,53.94
2023-04-14T02:54:41.758Z,54.39
2023-04-14T02:57:09.220Z,55.00
2023-04-14T02:59:40.068Z,55.11
2023-04-14T03:02:10.433Z,54.74
2023-04-14T03:04:41.982Z,55.08
2023-04-14T03:07:19.260Z,55.16
2023-04-14T03:09:49.466Z,55.46
2023-04-14T03:12:18.929Z,55.12
2023-04-14T03:14:47.621Z,55.00
2023-04-14T03:17:15.072Z,55.11
2023-04-14T03:19:42.789Z,55.09
2023-04-14T03:22:11.141Z,55.24
2023-04-14T03:24:38.914Z,55.32
2023-04-14T03:27:15.278Z,55.25
2023-04-14T03:29:46.816Z,55.04
2023-04-14T03:32:15.277Z,55.10
2023-04-14T03:34:42.959Z,55.01
2023-04-14T03:37:11.271Z,55.34
2023-04-14T03:39:39.173Z,55.57
2023-04-14T03:42:13.741Z,55.29
2023-04-14T03:44:46.072Z,55.41
2023-04-14T03:47:14.423Z,55.58
2023-04-14T03:49:46.766Z,55.24
2023-04-14T03:52:16.034Z,55.06
2023-04-14T03:54:45.451Z,55.40
2023-04-14T03:57:17.482Z,55.19
2023-04-14T03:59:48.344Z,54.89
2023-04-14T04:02:16.059Z,54.89
2023-04-14T04:04:44.095Z,54.98
2023-04-14T04:07:15.548Z,54.96
2023-04-14T04:09:43.585Z,54.60
2023-04-14T04:12:13.741Z,54.79
2023-04-14T04:14:40.607Z,54.95
2023-04-14T04:17:09.401Z,54.85
2023-04-14T04:19:38.591Z,54.51
2023-04-14T04:22:07.880Z,55.60
2023-04-14T04:24:38.362Z,55.38
2023-04-14T04:27:20.339Z,55.45
2023-04-14T04:29:52.262Z,55.38
2023-04-14T04:32:20.920Z,55.79
2023-04-14T04:34:49.431Z,56.25
2023-04-14T04:37:19.351Z,56.21
2023-04-14T04:39:46.071Z,56.91
2023-04-14T04:42:12.845Z,56.25
2023-04-14T04:44:39.424Z,56.04
2023-04-14T04:47:06.582Z,56.05
2023-04-14T04:49:33.157Z,55.85
2023-04-14T04:52:03.199Z,56.27
2023-04-14T04:54:29.789Z,56.38
2023-04-14T04:56:57.564Z,56.03
2023-04-14T04:59:24.455Z,55.98
2023-04-14T05:01:51.254Z,56.98
2023-04-14T05:04:18.125Z,56.08
2023-04-14T05:06:44.711Z,56.12
2023-04-14T05:09:11.263Z,56.28
2023-04-14T05:11:37.844Z,57.28
2023-04-14T05:14:04.457Z,56.66
2023-04-14T05:16:31.538Z,56.42
2023-04-14T05:18:58.351Z,56.70
2023-04-14T05:21:25.012Z,56.58
2023-04-14T05:23:51.596Z,56.26
2023-04-14T05:28:47.619Z,56.48
2023-04-14T05:31:14.543Z,57.70
2023-04-14T05:33:41.138Z,56.92
2023-04-14T05:36:07.855Z,56.51
2023-04-14T05:38:38.318Z,56.34
2023-04-14T05:41:04.895Z,56.36
2023-04-14T05:43:31.414Z,56.44
2023-04-14T05:45:58.558Z,56.65
2023-04-14T05:48:27.979Z,57.02
2023-04-14T05:50:54.802Z,55.87
2023-04-14T05:53:21.542Z,56.22
2023-04-14T05:55:48.750Z,56.62
2023-04-14T05:58:15.349Z,56.35
2023-04-14T06:00:41.855Z,56.19
2023-04-14T06:03:08.693Z,56.28
2023-04-14T06:05:35.593Z,56.65
2023-04-14T06:08:02.129Z,56.34
2023-04-14T06:10:28.789Z,56.35
2023-04-14T06:12:56.020Z,56.51
2023-04-14T06:15:22.710Z,56.34
2023-04-14T06:17:49.302Z,56.59
2023-04-14T06:20:15.866Z,56.26
2023-04-14T06:22:43.271Z,56.70
2023-04-14T06:25:10.981Z,56.57
2023-04-14T06:27:37.542Z,56.80
2023-04-14T06:30:06.210Z,56.32
2023-04-14T06:32:32.983Z,56.29
2023-04-14T06:34:59.724Z,57.60
2023-04-14T06:37:26.275Z,56.83
2023-04-14T06:39:52.823Z,57.11
2023-04-14T06:42:19.323Z,57.32
2023-04-14T06:44:46.150Z,56.55
2023-04-14T06:47:18.015Z,56.38
2023-04-14T06:49:44.651Z,55.82
2023-04-14T06:52:11.234Z,55.91
2023-04-14T06:54:37.883Z,56.03
2023-04-14T06:57:04.749Z,55.63
2023-04-14T06:59:31.342Z,56.60
2023-04-14T07:01:58.686Z,56.82
2023-04-14T07:04:25.800Z,56.20
2023-04-14T07:06:52.389Z,55.97
2023-04-14T07:09:19.381Z,55.75
2023-04-14T07:11:46.466Z,56.11
2023-04-14T07:14:13.057Z,55.84
2023-04-14T07:16:39.561Z,55.99
2023-04-14T07:19:06.177Z,55.97
2023-04-14T07:21:32.745Z,56.45
2023-04-14T07:23:59.499Z,55.88
2023-04-14T07:26:26.559Z,55.54
2023-04-14T07:28:53.201Z,55.48
2023-04-14T07:31:19.804Z,55.49
2023-04-14T07:33:46.387Z,56.26
2023-04-14T07:36:12.966Z,56.05
2023-04-14T07:38:39.570Z,56.03
2023-04-14T07:41:07.055Z,56.16
2023-04-14T07:43:37.194Z,56.31
2023-04-14T07:46:08.080Z,56.42
2023-04-14T07:48:36.323Z,56.04
2023-04-14T07:51:04.684Z,55.86
2023-04-14T07:53:32.287Z,56.00
2023-04-14T07:55:59.533Z,55.72
2023-04-14T07:58:27.787Z,55.36
2023-04-14T08:00:55.676Z,56.15
2023-04-14T08:03:22.528Z,55.99
2023-04-14T08:05:49.356Z,55.37
2023-04-14T08:08:16.030Z,55.42
2023-04-14T08:10:42.763Z,55.65
2023-04-14T08:13:09.861Z,54.78
2023-04-14T08:15:36.717Z,55.60
2023-04-14T08:18:03.405Z,56.00
2023-04-14T08:20:29.968Z,55.97
2023-04-14T08:22:57.196Z,55.79
2023-04-14T08:25:24.033Z,55.71
2023-04-14T08:27:50.652Z,56.08
2023-04-14T08:30:17.221Z,56.93
2023-04-14T08:32:43.903Z,56.16
2023-04-14T08:35:41.016Z,55.67
2023-04-14T08:37:57.152Z,55.40
2023-04-14T08:40:30.709Z,55.33
2023-04-14T08:42:57.299Z,55.48
2023-04-14T08:45:24.038Z,55.67
2023-04-14T08:47:55.064Z,55.31
2023-04-14T08:50:25.475Z,55.60
2023-04-14T08:52:56.241Z,55.33
2023-04-14T08:55:24.484Z,55.44
2023-04-14T08:57:51.529Z,54.55
2023-04-14T09:00:19.447Z,54.02
2023-04-14T09:02:46.936Z,54.80
2023-04-14T09:05:14.319Z,55.12
2023-04-14T09:07:42.688Z,55.01
2023-04-14T09:10:11.832Z,54.88
2023-04-14T09:12:42.196Z,55.50
2023-04-14T09:15:09.494Z,54.84
2023-04-14T09:17:36.742Z,54.71
2023-04-14T09:20:36.396Z,55.31
2023-04-14T09:22:50.808Z,54.25
2023-04-14T09:25:19.699Z,54.18
2023-04-14T09:27:47.875Z,54.44
2023-04-14T09:30:17.508Z,53.96
2023-04-14T09:32:44.968Z,54.46
2023-04-14T09:35:14.143Z,54.58
2023-04-14T09:37:46.482Z,55.44
2023-04-14T09:40:29.010Z,55.24
2023-04-14T09:42:56.801Z,54.96
2023-04-14T09:45:40.852Z,54.52
2023-04-14T09:48:08.686Z,54.73
2023-04-14T09:50:57.486Z,54.75
2023-04-14T09:53:29.547Z,55.80
2023-04-14T09:55:57.690Z,55.31
2023-04-14T09:58:26.827Z,54.45
2023-04-14T10:00:55.208Z,54.93
2023-04-14T10:03:34.266Z,54.84
2023-04-14T10:06:01.578Z,54.37
2023-04-14T10:08:38.922Z,54.79
2023-04-14T10:11:30.061Z,54.33
2023-04-14T10:14:02.376Z,54.70
2023-04-14T10:16:29.365Z,54.72
2023-04-14T10:18:59.385Z,53.93
2023-04-14T10:21:27.745Z,53.94
2023-04-14T10:23:56.935Z,55.19
2023-04-14T10:26:23.513Z,55.23
2023-04-14T10:28:52.825Z,53.98
2023-04-14T10:31:32.136Z,53.95
2023-04-14T10:33:58.932Z,55.45
2023-04-14T10:36:27.841Z,53.61
2023-04-14T10:39:03.103Z,53.05
2023-04-14T10:41:43.033Z,53.26
2023-04-14T10:44:26.927Z,53.08
2023-04-14T10:46:56.174Z,52.74
2023-04-14T10:49:30.927Z,53.01
2023-04-14T10:52:05.026Z,53.29
2023-04-14T10:54:54.286Z,53.34
2023-04-14T10:57:25.626Z,51.18
2023-04-14T10:59:59.655Z,50.90
2023-04-14T11:02:31.028Z,51.59
2023-04-14T11:05:05.242Z,50.73
2023-04-14T11:07:38.499Z,49.96
2023-04-14T11:10:17.885Z,48.37
2023-04-14T11:12:45.831Z,49.47
2023-04-14T11:15:12.516Z,49.79
2023-04-14T11:17:40.313Z,50.52
2023-04-14T11:20:23.448Z,47.96
2023-04-14T11:22:52.778Z,48.50
2023-04-14T11:25:23.944Z,47.40
2023-04-14T11:27:52.018Z,46.66
2023-04-14T11:30:20.274Z,45.05
2023-04-14T11:32:52.077Z,44.25
2023-04-14T11:35:20.236Z,45.75
2023-04-14T11:37:47.370Z,43.60
2023-04-14T11:40:15.505Z,41.54
2023-04-14T11:42:58.611Z,41.51
2023-04-14T11:45:31.706Z,42.28
2023-04-14T11:48:03.207Z,42.16
2023-04-14T11:50:31.747Z,42.88
2023-04-14T11:53:02.956Z,41.27
2023-04-14T11:55:29.963Z,41.04
2023-04-14T11:57:57.789Z,39.95
2023-04-14T12:00:24.864Z,35.75
2023-04-14T12:02:51.666Z,38.50
2023-04-14T12:05:25.345Z,39.62
2023-04-14T12:07:59.135Z,42.19
2023-04-14T12:10:26.929Z,41.30
2023-04-14T12:13:04.624Z,41.83
2023-04-14T12:15:39.309Z,43.24
2023-04-14T12:18:11.519Z,45.26
2023-04-14T12:21:01.507Z,45.96
2023-04-14T12:23:28.288Z,45.65
2023-04-14T12:25:54.886Z,46.46
2023-04-14T12:28:25.669Z,46.33
2023-04-14T12:30:52.852Z,46.19
2023-04-14T12:33:22.913Z,46.74
2023-04-14T12:35:52.532Z,48.47
2023-04-14T12:38:19.476Z,49.62
2023-04-14T12:40:47.896Z,46.86
2023-04-14T12:43:16.589Z,46.51
2023-04-14T12:45:48.344Z,47.57
2023-04-14T12:48:18.295Z,45.09
2023-04-14T12:50:45.038Z,43.91
2023-04-14T12:53:28.831Z,39.91
2023-04-14T12:56:13.122Z,38.60
2023-04-14T12:58:49.454Z,39.56
2023-04-14T13:01:18.103Z,41.42
2023-04-14T13:03:50.856Z,40.59
2023-04-14T13:06:24.898Z,42.05
2023-04-14T13:08:52.414Z,43.65
2023-04-14T13:11:20.812Z,44.07
2023-04-14T13:13:47.680Z,47.52
2023-04-14T13:16:17.735Z,51.73
2023-04-14T13:18:46.630Z,49.45
2023-04-14T13:21:13.330Z,50.84
2023-04-14T13:23:40.028Z,52.24
2023-04-14T13:26:06.617Z,51.40
2023-04-14T13:28:33.187Z,51.16
2023-04-14T13:30:59.767Z,51.25
2023-04-14T13:33:27.487Z,50.96
2023-04-14T13:35:55.614Z,51.06
2023-04-14T13:38:22.575Z,50.53
2023-04-14T13:40:49.291Z,50.63
2023-04-14T13:43:21.699Z,50.24
2023-04-14T13:45:48.281Z,52.03
2023-04-14T13:48:15.040Z,52.24
2023-04-14T13:50:41.887Z,52.34
2023-04-14T13:53:08.852Z,51.89
2023-04-14T13:55:36.184Z,51.61
2023-04-14T13:58:03.065Z,50.53
2023-04-14T14:00:29.663Z,50.70
2023-04-14T14:02:56.582Z,49.09
2023-04-14T14:05:23.418Z,47.17
2023-04-14T14:07:50.261Z,46.34
2023-04-14T14:10:16.820Z,45.64
2023-04-14T14:12:43.437Z,45.47
2023-04-14T14:15:10.506Z,44.91
2023-04-14T14:17:37.499Z,43.86
2023-04-14T14:20:04.403Z,42.72
2023-04-14T14:22:31.111Z,42.20
2023-04-14T14:25:10.694Z,42.74
2023-04-14T14:27:42.222Z,40.61
2023-04-14T14:30:09.297Z,39.11
2023-04-14T14:32:35.985Z,36.91
2023-04-14T14:35:04.225Z,37.50
2023-04-14T14:37:30.837Z,37.52
2023-04-14T14:39:57.881Z,36.41
2023-04-14T14:42:24.435Z,36.33
2023-04-14T14:44:51.281Z,36.19
2023-04-14T14:47:17.851Z,38.62
2023-04-14T14:49:56.700Z,37.23
2023-04-14T14:52:29.842Z,35.36
2023-04-14T14:54:56.404Z,36.39
2023-04-14T14:57:23.159Z,35.20
2023-04-14T14:59:49.806Z,30.60
2023-04-14T15:02:16.954Z,29.58
2023-04-14T15:04:43.891Z,27.87
2023-04-14T15:07:10.589Z,27.92
2023-04-14T15:09:37.244Z,28.95
2023-04-14T15:12:03.898Z,30.42
2023-04-14T15:14:30.493Z,32.20
2023-04-14T15:16:57.178Z,31.38
2023-04-14T15:19:24.101Z,34.30
2023-04-14T15:21:54.010Z,34.06
2023-04-14T15:24:20.603Z,35.09
2023-04-14T15:26:47.207Z,35.84
2023-04-14T15:29:13.780Z,35.53
2023-04-14T15:31:40.329Z,34.62
2023-04-14T15:34:07.655Z,34.18
2023-04-14T15:36:34.351Z,34.47
2023-04-14T15:39:00.930Z,35.26
2023-04-14T15:41:27.543Z,35.83
2023-04-14T15:43:54.074Z,35.50
2023-04-14T15:46:20.774Z,33.95
2023-04-14T15:48:47.325Z,34.17
2023-04-14T15:51:13.918Z,39.58
2023-04-14T15:53:40.446Z,42.98
2023-04-14T15:56:07.014Z,44.01
2023-04-14T15:58:34.151Z,45.17
2023-04-14T16:01:00.725Z,43.57
2023-04-14T16:03:27.585Z,43.14
2023-04-14T16:06:06.723Z,43.30
2023-04-14T16:08:33.616Z,43.78
2023-04-14T16:11:00.245Z,44.12
2023-04-14T16:13:27.381Z,43.27
2023-04-14T16:15:54.041Z,44.76
2023-04-14T16:18:20.699Z,45.96
2023-04-14T16:20:49.974Z,44.80
2023-04-14T16:23:16.616Z,44.60
2023-04-14T16:25:48.370Z,43.60
2023-04-14T16:28:14.940Z,43.62
2023-04-14T16:30:42.655Z,43.46
2023-04-14T16:33:09.388Z,43.24
2023-04-14T16:35:36.188Z,43.61
2023-04-14T16:38:03.034Z,43.93
2023-04-14T16:40:29.600Z,45.61
2023-04-14T16:42:56.167Z,43.97
2023-04-14T16:45:22.674Z,44.10
2023-04-14T16:47:49.192Z,43.99
2023-04-14T16:50:15.821Z,44.08
2023-04-14T16:52:42.399Z,43.67
2023-04-14T16:55:09.832Z,43.72
2023-04-14T16:57:36.366Z,45.44
2023-04-14T17:00:03.556Z,45.01
2023-04-14T17:02:30.262Z,44.67
2023-04-14T17:04:58.179Z,44.60
2023-04-14T17:07:24.802Z,44.84
2023-04-14T17:09:51.374Z,45.14
2023-04-14T17:12:18.307Z,44.51
2023-04-14T17:14:45.082Z,44.69
2023-04-14T17:17:11.664Z,44.70
2023-04-14T17:19:38.161Z,45.99
2023-04-14T17:22:04.696Z,45.46
2023-04-14T17:24:31.382Z,46.31
2023-04-14T17:26:57.976Z,46.07
2023-04-14T17:29:25.528Z,46.21
2023-04-14T17:31:52.186Z,46.57
2023-04-14T17:34:20.581Z,46.86
2023-04-14T17:36:47.598Z,46.63
2023-04-14T17:39:14.313Z,47.61
2023-04-14T17:41:40.946Z,47.58
2023-04-14T17:44:07.499Z,48.40
2023-04-14T17:46:34.492Z,48.29
2023-04-14T17:49:04.366Z,48.47
2023-04-14T17:51:31.888Z,48.67
2023-04-14T17:53:58.975Z,48.04
2023-04-14T17:56:25.910Z,48.57
2023-04-14T17:58:52.869Z,48.06
2023-04-14T18:01:19.750Z,48.79
2023-04-14T18:03:46.493Z,50.04
2023-04-14T18:06:13.410Z,49.28
2023-04-14T18:08:39.989Z,48.79
2023-04-14T18:11:07.047Z,48.15
2023-04-14T18:13:34.614Z,48.55
2023-04-14T18:16:01.756Z,48.85
2023-04-14T18:18:28.468Z,48.80
2023-04-14T18:20:55.567Z,48.81
2023-04-14T18:23:22.229Z,49.29
2023-04-14T18:28:28.081Z,49.79
2023-04-14T18:30:59.373Z,49.12
2023-04-14T18:33:28.404Z,49.85
2023-04-14T18:36:00.532Z,50.21
2023-04-14T18:38:28.494Z,49.29
2023-04-14T18:41:02.226Z,49.19
2023-04-14T18:43:28.808Z,49.15
2023-04-14T18:45:55.632Z,48.90
2023-04-14T18:48:22.233Z,48.68
2023-04-14T18:51:01.673Z,49.56
2023-04-14T18:53:28.629Z,49.19
2023-04-14T18:55:55.273Z,48.93
2023-04-14T18:58:21.891Z,48.77
2023-04-14T19:00:48.439Z,48.74
2023-04-14T19:03:15.259Z,48.51
2023-04-14T19:05:42.235Z,48.65
2023-04-14T19:08:08.829Z,48.65
2023-04-14T19:10:36.268Z,48.75
2023-04-14T19:13:02.964Z,48.26
2023-04-14T19:15:29.522Z,48.10
2023-04-14T19:17:56.248Z,48.83
2023-04-14T19:20:24.150Z,48.25
2023-04-14T19:22:50.868Z,48.51
2023-04-14T19:25:17.579Z,48.42
2023-04-14T19:27:44.296Z,48.59
2023-04-14T19:30:12.038Z,48.66
2023-04-14T19:32:38.707Z,49.34
2023-04-14T19:35:07.440Z,49.22
2023-04-14T19:37:34.958Z,49.61
2023-04-14T19:40:02.431Z,49.37
2023-04-14T19:42:29.024Z,49.28
2023-04-14T19:44:56.029Z,48.79
2023-04-14T19:47:24.040Z,48.70
2023-04-14T19:49:51.367Z,48.79
2023-04-14T19:52:19.038Z,49.07
2023-04-14T19:54:45.745Z,48.90
2023-04-14T19:57:12.316Z,49.28
2023-04-14T19:59:39.895Z,48.68
2023-04-14T20:02:10.507Z,48.73
2023-04-14T20:04:37.865Z,48.68
2023-04-14T20:07:05.067Z,49.41
2023-04-14T20:09:31.845Z,49.30
2023-04-14T20:12:10.368Z,49.81
2023-04-14T20:14:36.919Z,50.09
2023-04-14T20:17:03.703Z,50.00
2023-04-14T20:19:30.990Z,49.71
2023-04-14T20:21:57.760Z,50.14
2023-04-14T20:24:24.314Z,50.68
2023-04-14T20:26:50.846Z,50.02
2023-04-14T20:29:17.494Z,50.14
2023-04-14T20:31:44.257Z,49.81
2023-04-14T20:34:11.999Z,49.62
2023-04-14T20:36:38.723Z,50.21
2023-04-14T20:39:06.215Z,49.99
2023-04-14T20:41:33.924Z,49.88
2023-04-14T20:44:01.193Z,50.45
2023-04-14T20:46:27.902Z,50.10
2023-04-14T20:48:54.656Z,50.23
2023-04-14T20:51:21.273Z,50.25
2023-04-14T20:53:48.496Z,50.00
2023-04-14T20:56:15.072Z,50.20
2023-04-14T20:58:41.579Z,49.77
2023-04-14T21:01:09.367Z,49.78
2023-04-14T21:03:36.222Z,49.92
2023-04-14T21:06:02.984Z,50.16
2023-04-14T21:08:29.766Z,49.95
2023-04-14T21:11:15.595Z,49.94
2023-04-14T21:15:31.268Z,49.91
2023-04-14T21:16:30.338Z,50.09
2023-04-14T21:18:57.369Z,50.37
2023-04-14T21:21:23.909Z,49.91
2023-04-14T21:23:50.812Z,49.74
2023-04-14T21:26:17.694Z,50.22
2023-04-14T21:28:44.328Z,50.22
2023-04-14T21:31:11.325Z,50.18
2023-04-14T21:33:39.614Z,50.19
2023-04-14T21:36:06.979Z,50.12
2023-04-14T21:38:33.736Z,49.72
2023-04-14T21:41:00.722Z,49.60
2023-04-14T21:43:27.484Z,49.62
2023-04-14T21:45:54.293Z,50.06
2023-04-14T21:48:20.915Z,49.52
2023-04-14T21:50:47.487Z,49.80
2023-04-14T21:53:14.150Z,49.58
2023-04-14T21:55:41.089Z,49.93
2023-04-14T21:58:07.684Z,49.51
2023-04-14T22:00:34.888Z,49.61
2023-04-14T22:03:02.281Z,49.67
2023-04-14T22:05:28.892Z,49.76
2023-04-14T22:07:55.489Z,49.31
2023-04-14T22:10:22.080Z,49.61
2023-04-14T22:12:48.959Z,49.39
2023-04-14T22:15:15.572Z,49.50
2023-04-14T22:17:42.449Z,49.71
2023-04-14T22:20:09.779Z,50.08
2023-04-14T22:22:36.623Z,49.88
2023-04-14T22:25:04.435Z,49.45
2023-04-14T22:27:33.332Z,49.45
2023-04-14T22:30:00.320Z,49.39
2023-04-14T22:32:27.163Z,49.64
2023-04-14T22:34:53.927Z,49.57
2023-04-14T22:37:20.524Z,49.49
2023-04-14T22:39:47.079Z,49.34
2023-04-14T22:42:13.681Z,49.67
2023-04-14T22:44:40.213Z,49.67
2023-04-14T22:47:06.792Z,49.68
2023-04-14T22:49:33.377Z,49.51
2023-04-14T22:51:59.912Z,49.92
2023-04-14T22:54:27.445Z,49.78
2023-04-14T22:56:54.012Z,49.66
2023-04-14T22:59:20.594Z,49.74
2023-04-14T23:01:48.242Z,49.69
2023-04-14T23:04:15.118Z,49.73
2023-04-14T23:06:41.713Z,49.77
2023-04-14T23:09:08.286Z,49.88
2023-04-14T23:11:34.849Z,49.81
2023-04-14T23:14:01.419Z,49.61
2023-04-14T23:16:28.122Z,49.78
2023-04-14T23:18:54.786Z,49.64
2023-04-14T23:21:24.843Z,49.43
2023-04-14T23:23:51.662Z,49.94
2023-04-14T23:26:19.619Z,49.69
2023-04-14T23:28:46.688Z,49.76
2023-04-14T23:31:13.603Z,49.43
2023-04-14T23:33:40.581Z,49.81
2023-04-14T23:36:07.678Z,49.67
2023-04-14T23:38:34.308Z,49.37
2023-04-14T23:41:01.404Z,49.76
2023-04-14T23:43:29.019Z,49.46
2023-04-14T23:45:55.912Z,49.57
2023-04-14T23:48:22.488Z,49.65
2023-04-14T23:51:01.728Z,49.98
2023-04-14T23:53:36.038Z,49.76
2023-04-14T23:56:04.168Z,49.67
2023-04-14T23:58:31.376Z,49.54
